createdAt,value
2022-12-23T00:02:16.481Z,1.80
2022-12-23T00:12:36.836Z,1.80
2022-12-23T00:22:59.097Z,2.40
2022-12-23T00:33:02.183Z,2.20
2022-12-23T00:43:06.555Z,2.47
2022-12-23T00:53:09.625Z,3.50
2022-12-23T01:03:32.825Z,3.80
2022-12-23T01:13:36.280Z,2.53
2022-12-23T01:23:40.662Z,2.73
2022-12-23T01:33:43.704Z,2.60
2022-12-23T01:43:50.138Z,1.70
2022-12-23T01:53:56.480Z,1.50
2022-12-23T02:04:03.885Z,0.60
2022-12-23T02:14:40.977Z,0.53
2022-12-23T02:25:23.715Z,0.27
2022-12-23T02:35:33.029Z,0.30
2022-12-23T02:45:40.857Z,0.23
2022-12-23T02:55:47.494Z,0.40
2022-12-23T03:05:52.318Z,0.50
2022-12-23T03:16:09.091Z,0.30
2022-12-23T03:26:18.043Z,0.30
2022-12-23T03:36:26.237Z,0.40
2022-12-23T03:46:33.996Z,0.40
2022-12-23T03:56:42.706Z,0.20
2022-12-23T04:06:52.993Z,0.23
2022-12-23T04:16:59.291Z,0.20
2022-12-23T04:27:02.364Z,0.20
2022-12-23T04:37:06.795Z,0.30
2022-12-23T04:47:09.918Z,0.30
2022-12-23T04:57:14.522Z,0.30
2022-12-23T05:07:17.599Z,0.30
2022-12-23T05:17:22.087Z,0.40
2022-12-23T05:27:25.124Z,0.30
2022-12-23T05:37:30.621Z,0.30
2022-12-23T05:47:33.691Z,0.30
2022-12-23T05:57:38.059Z,0.30
2022-12-23T06:07:41.747Z,0.20
2022-12-23T06:17:46.126Z,0.30
2022-12-23T06:27:49.222Z,0.30
2022-12-23T06:37:55.397Z,0.20
2022-12-23T06:47:58.427Z,0.20
2022-12-23T06:58:02.850Z,0.20
2022-12-23T07:08:06.510Z,0.27
2022-12-23T07:18:10.879Z,0.37
2022-12-23T07:28:13.917Z,0.20
2022-12-23T07:38:18.298Z,0.30
2022-12-23T07:48:21.346Z,0.23
2022-12-23T07:58:25.788Z,0.30
2022-12-23T08:08:28.838Z,0.30
2022-12-23T08:18:34.962Z,0.40
2022-12-23T08:28:39.213Z,0.30
2022-12-23T08:38:43.761Z,0.43
2022-12-23T08:48:49.524Z,0.50
2022-12-23T08:58:55.828Z,0.70
2022-12-23T09:08:59.597Z,0.60
2022-12-23T09:19:04.599Z,0.60
2022-12-23T09:29:07.616Z,0.90
2022-12-23T09:39:12.592Z,0.50
2022-12-23T09:49:18.169Z,0.43
2022-12-23T09:59:37.427Z,0.43
2022-12-23T10:09:44.684Z,0.38
2022-12-23T10:19:50.665Z,0.40
2022-12-23T10:29:53.795Z,0.50
2022-12-23T10:40:17.774Z,0.50
2022-12-23T10:50:37.570Z,0.30
2022-12-23T11:00:47.122Z,0.60
2022-12-23T11:10:51.412Z,0.82
2022-12-23T11:21:07.461Z,0.88
2022-12-23T11:31:14.604Z,1.08
2022-12-23T11:41:23.332Z,0.90
2022-12-23T11:51:27.764Z,1.00
2022-12-23T12:01:32.585Z,0.95
2022-12-23T12:11:39.707Z,0.60
2022-12-23T12:21:46.744Z,0.70
2022-12-23T12:31:51.712Z,0.70
2022-12-23T12:42:05.506Z,0.70
2022-12-23T12:52:14.034Z,0.67
2022-12-23T13:02:47.062Z,0.68
2022-12-23T13:12:58.808Z,0.60
2022-12-23T13:23:41.823Z,0.63
2022-12-23T13:33:40.821Z,0.60
2022-12-23T13:43:57.494Z,0.60
2022-12-23T13:54:11.084Z,0.68
2022-12-23T14:04:35.507Z,0.80
2022-12-23T14:14:45.523Z,0.90
2022-12-23T14:25:19.590Z,0.80
2022-12-23T14:35:28.909Z,0.80
2022-12-23T14:45:37.435Z,0.90
2022-12-23T14:55:45.434Z,0.90
2022-12-23T15:05:50.973Z,0.93
2022-12-23T15:16:01.007Z,1.10
2022-12-23T15:26:06.497Z,1.10
2022-12-23T15:36:11.660Z,0.90
2022-12-23T15:46:23.641Z,0.98
2022-12-23T15:56:33.033Z,0.83
2022-12-23T16:06:39.037Z,0.88
2022-12-23T16:16:42.987Z,1.13
2022-12-23T16:26:47.498Z,1.03
2022-12-23T16:36:51.421Z,1.00
2022-12-23T16:46:55.917Z,0.90
2022-12-23T16:56:59.182Z,1.10
2022-12-23T17:07:06.710Z,1.10
2022-12-23T17:17:15.473Z,1.30
2022-12-23T17:27:21.184Z,1.67
2022-12-23T17:37:24.600Z,1.60
2022-12-23T17:47:29.024Z,1.60
2022-12-23T17:57:32.607Z,1.38
2022-12-23T18:07:37.062Z,1.60
2022-12-23T18:17:40.077Z,1.30
2022-12-23T18:27:44.531Z,1.40
2022-12-23T18:37:47.576Z,1.40
2022-12-23T18:47:51.950Z,1.50
2022-12-23T18:57:55.374Z,1.47
2022-12-23T19:08:00.583Z,1.30
2022-12-23T19:18:03.661Z,1.20
2022-12-23T19:28:08.083Z,1.08
2022-12-23T19:38:12.264Z,0.80
2022-12-23T19:48:16.931Z,0.80
2022-12-23T19:58:19.948Z,0.90
2022-12-23T20:08:24.324Z,1.67
2022-12-23T20:18:27.417Z,1.48
2022-12-23T20:28:32.201Z,1.20
2022-12-23T20:38:35.574Z,1.00
2022-12-23T20:48:40.078Z,0.98
2022-12-23T20:58:59.410Z,1.00
2022-12-23T21:09:06.801Z,1.40
2022-12-23T21:19:15.492Z,1.40
2022-12-23T21:29:20.518Z,1.40
2022-12-23T21:39:23.539Z,1.70
2022-12-23T21:49:27.962Z,1.93
2022-12-23T21:59:34.948Z,1.60
2022-12-23T22:09:39.881Z,1.20
2022-12-23T22:19:42.900Z,1.20
2022-12-23T22:29:47.345Z,0.80
2022-12-23T22:39:50.379Z,1.10
2022-12-23T22:49:54.857Z,1.37
2022-12-23T22:59:58.043Z,1.60
2022-12-23T23:10:02.489Z,1.60
2022-12-23T23:20:06.187Z,1.20
2022-12-23T23:30:11.710Z,1.43
2022-12-23T23:40:15.017Z,1.10
2022-12-23T23:50:19.518Z,1.10
